sensor_id;sensor_type;location;lat;lon;timestamp;P1;durP1;ratioP1;P2;durP2;ratioP2
52294;SDS011;38243;53.212;6.574;2024-03-23T14:37:32;7.60;;;1.00;;
52294;SDS011;38243;53.212;6.574;2024-03-23T14:39:58;5.57;;;1.10;;
52294;SDS011;38243;53.212;6.574;2024-03-23T14:42:24;4.87;;;1.23;;
52294;SDS011;38243;53.212;6.574;2024-03-23T14:44:51;4.53;;;1.13;;
52294;SDS011;38243;53.212;6.574;2024-03-23T14:47:17;5.10;;;1.10;;
52294;SDS011;38243;53.212;6.574;2024-03-23T14:49:44;4.35;;;0.93;;
52294;SDS011;38243;53.212;6.574;2024-03-23T14:52:15;5.27;;;0.93;;
52294;SDS011;38243;53.212;6.574;2024-03-23T14:54:41;5.18;;;1.10;;
52294;SDS011;38243;53.212;6.574;2024-03-23T14:57:07;4.60;;;1.20;;
52294;SDS011;38243;53.212;6.574;2024-03-23T14:59:34;5.43;;;0.90;;
52294;SDS011;38243;53.212;6.574;2024-03-23T15:02:00;2.92;;;0.95;;
52294;SDS011;38243;53.212;6.574;2024-03-23T15:04:26;6.00;;;1.20;;
52294;SDS011;38243;53.212;6.574;2024-03-23T15:06:52;3.60;;;1.20;;
52294;SDS011;38243;53.212;6.574;2024-03-23T15:09:17;4.85;;;1.17;;
52294;SDS011;38243;53.212;6.574;2024-03-23T15:11:43;3.30;;;0.90;;
52294;SDS011;38243;53.212;6.574;2024-03-23T15:14:09;4.45;;;0.85;;
52294;SDS011;38243;53.212;6.574;2024-03-23T15:16:36;5.40;;;1.10;;
52294;SDS011;38243;53.212;6.574;2024-03-23T15:19:02;3.50;;;1.00;;
52294;SDS011;38243;53.212;6.574;2024-03-23T15:21:28;8.15;;;1.10;;
52294;SDS011;38243;53.212;6.574;2024-03-23T15:23:53;5.20;;;1.00;;
52294;SDS011;38243;53.212;6.574;2024-03-23T15:26:19;2.73;;;0.80;;
52294;SDS011;38243;53.212;6.574;2024-03-23T15:28:48;5.10;;;1.08;;
52294;SDS011;38243;53.212;6.574;2024-03-23T15:31:20;2.92;;;0.80;;
52294;SDS011;38243;53.212;6.574;2024-03-23T15:33:46;3.50;;;1.07;;
52294;SDS011;38243;53.212;6.574;2024-03-23T15:36:11;3.65;;;0.88;;
52294;SDS011;38243;53.212;6.574;2024-03-23T15:38:37;3.28;;;0.80;;
52294;SDS011;38243;53.212;6.574;2024-03-23T15:41:06;4.63;;;1.10;;
52294;SDS011;38243;53.212;6.574;2024-03-23T15:43:32;3.72;;;0.98;;
52294;SDS011;38243;53.212;6.574;2024-03-23T15:45:59;2.87;;;0.80;;
52294;SDS011;38243;53.212;6.574;2024-03-23T15:48:29;3.83;;;0.82;;
52294;SDS011;38243;53.212;6.574;2024-03-23T15:50:58;4.90;;;1.05;;
52294;SDS011;38243;53.212;6.574;2024-03-23T15:53:25;4.68;;;1.00;;
52294;SDS011;38243;53.212;6.574;2024-03-23T15:55:55;2.95;;;0.93;;
52294;SDS011;38243;53.212;6.574;2024-03-23T15:58:22;5.90;;;0.80;;
52294;SDS011;38243;53.212;6.574;2024-03-23T16:00:59;4.50;;;0.95;;
52294;SDS011;38243;53.212;6.574;2024-03-23T16:03:26;6.38;;;1.58;;
52294;SDS011;38243;53.212;6.574;2024-03-23T16:08:19;5.90;;;2.13;;
52294;SDS011;38243;53.212;6.574;2024-03-23T16:10:45;5.10;;;1.63;;
52294;SDS011;38243;53.212;6.574;2024-03-23T16:13:11;5.75;;;1.75;;
52294;SDS011;38243;53.212;6.574;2024-03-23T16:15:36;5.13;;;1.70;;
52294;SDS011;38243;53.212;6.574;2024-03-23T16:18:02;12.50;;;2.75;;
52294;SDS011;38243;53.212;6.574;2024-03-23T16:20:28;6.65;;;2.28;;
52294;SDS011;38243;53.212;6.574;2024-03-23T16:22:55;7.55;;;2.10;;
52294;SDS011;38243;53.212;6.574;2024-03-23T16:25:21;8.40;;;2.50;;
52294;SDS011;38243;53.212;6.574;2024-03-23T16:27:47;9.65;;;2.95;;
52294;SDS011;38243;53.212;6.574;2024-03-23T16:30:12;6.47;;;2.30;;
52294;SDS011;38243;53.212;6.574;2024-03-23T16:32:39;6.17;;;2.27;;
52294;SDS011;38243;53.212;6.574;2024-03-23T16:35:05;8.93;;;2.20;;
52294;SDS011;38243;53.212;6.574;2024-03-23T16:37:30;6.00;;;2.10;;
52294;SDS011;38243;53.212;6.574;2024-03-23T16:39:56;6.83;;;2.47;;
52294;SDS011;38243;53.212;6.574;2024-03-23T16:42:22;5.47;;;2.03;;
52294;SDS011;38243;53.212;6.574;2024-03-23T16:44:48;6.97;;;2.23;;
52294;SDS011;38243;53.212;6.574;2024-03-23T16:47:13;6.82;;;2.15;;
52294;SDS011;38243;53.212;6.574;2024-03-23T16:49:39;6.43;;;1.80;;
52294;SDS011;38243;53.212;6.574;2024-03-23T16:52:04;6.05;;;1.90;;
52294;SDS011;38243;53.212;6.574;2024-03-23T16:54:30;7.67;;;1.90;;
52294;SDS011;38243;53.212;6.574;2024-03-23T16:56:56;6.13;;;1.73;;
52294;SDS011;38243;53.212;6.574;2024-03-23T16:59:22;4.80;;;1.80;;
52294;SDS011;38243;53.212;6.574;2024-03-23T17:01:47;5.85;;;1.83;;
52294;SDS011;38243;53.212;6.574;2024-03-23T17:04:13;5.83;;;2.00;;
52294;SDS011;38243;53.212;6.574;2024-03-23T17:06:39;4.95;;;1.80;;
52294;SDS011;38243;53.212;6.574;2024-03-23T17:09:05;7.47;;;1.60;;
52294;SDS011;38243;53.212;6.574;2024-03-23T17:11:31;5.57;;;1.67;;
52294;SDS011;38243;53.212;6.574;2024-03-23T17:13:57;5.80;;;1.77;;
52294;SDS011;38243;53.212;6.574;2024-03-23T17:16:23;4.73;;;1.70;;
52294;SDS011;38243;53.212;6.574;2024-03-23T17:18:50;4.75;;;1.42;;
52294;SDS011;38243;53.212;6.574;2024-03-23T17:21:17;4.47;;;1.33;;
52294;SDS011;38243;53.212;6.574;2024-03-23T17:23:43;4.30;;;1.48;;
52294;SDS011;38243;53.212;6.574;2024-03-23T17:26:09;3.40;;;1.42;;
52294;SDS011;38243;53.212;6.574;2024-03-23T17:28:37;4.50;;;1.60;;
52294;SDS011;38243;53.212;6.574;2024-03-23T17:31:03;4.82;;;1.48;;
52294;SDS011;38243;53.212;6.574;2024-03-23T17:33:29;3.60;;;1.35;;
52294;SDS011;38243;53.212;6.574;2024-03-23T17:35:54;4.22;;;1.30;;
52294;SDS011;38243;53.212;6.574;2024-03-23T17:38:20;4.97;;;1.48;;
52294;SDS011;38243;53.212;6.574;2024-03-23T17:40:46;3.93;;;1.07;;
52294;SDS011;38243;53.212;6.574;2024-03-23T17:43:12;4.78;;;1.30;;
52294;SDS011;38243;53.212;6.574;2024-03-23T17:45:38;3.87;;;1.20;;
52294;SDS011;38243;53.212;6.574;2024-03-23T17:48:04;4.28;;;1.42;;
52294;SDS011;38243;53.212;6.574;2024-03-23T17:50:30;3.63;;;1.30;;
52294;SDS011;38243;53.212;6.574;2024-03-23T17:52:57;3.67;;;1.03;;
52294;SDS011;38243;53.212;6.574;2024-03-23T17:55:25;3.70;;;1.00;;
52294;SDS011;38243;53.212;6.574;2024-03-23T17:57:50;5.38;;;1.10;;
52294;SDS011;38243;53.212;6.574;2024-03-23T18:00:16;3.73;;;1.10;;
52294;SDS011;38243;53.212;6.574;2024-03-23T18:02:43;2.88;;;1.20;;
52294;SDS011;38243;53.212;6.574;2024-03-23T18:05:09;4.60;;;1.50;;
52294;SDS011;38243;53.212;6.574;2024-03-23T18:07:35;4.63;;;1.23;;
52294;SDS011;38243;53.212;6.574;2024-03-23T18:10:00;4.20;;;1.53;;
52294;SDS011;38243;53.212;6.574;2024-03-23T18:12:26;4.22;;;1.33;;
52294;SDS011;38243;53.212;6.574;2024-03-23T18:14:52;2.65;;;1.00;;
52294;SDS011;38243;53.212;6.574;2024-03-23T18:17:19;6.15;;;1.65;;
52294;SDS011;38243;53.212;6.574;2024-03-23T18:19:45;4.53;;;1.40;;
52294;SDS011;38243;53.212;6.574;2024-03-23T18:22:11;3.07;;;1.10;;
52294;SDS011;38243;53.212;6.574;2024-03-23T18:24:36;3.28;;;1.00;;
52294;SDS011;38243;53.212;6.574;2024-03-23T18:27:02;4.67;;;1.10;;
52294;SDS011;38243;53.212;6.574;2024-03-23T18:29:28;4.38;;;1.30;;
52294;SDS011;38243;53.212;6.574;2024-03-23T18:31:54;3.00;;;1.40;;
52294;SDS011;38243;53.212;6.574;2024-03-23T18:34:19;3.15;;;0.90;;
52294;SDS011;38243;53.212;6.574;2024-03-23T18:36:45;3.50;;;1.20;;
52294;SDS011;38243;53.212;6.574;2024-03-23T18:39:11;3.25;;;0.88;;
52294;SDS011;38243;53.212;6.574;2024-03-23T18:41:37;3.35;;;1.17;;
52294;SDS011;38243;53.212;6.574;2024-03-23T18:44:03;3.90;;;1.23;;
52294;SDS011;38243;53.212;6.574;2024-03-23T18:46:29;3.95;;;0.98;;
52294;SDS011;38243;53.212;6.574;2024-03-23T18:48:55;3.17;;;0.90;;
52294;SDS011;38243;53.212;6.574;2024-03-23T18:51:21;3.72;;;1.00;;
52294;SDS011;38243;53.212;6.574;2024-03-23T18:53:47;5.70;;;1.50;;
52294;SDS011;38243;53.212;6.574;2024-03-23T18:56:12;3.40;;;1.10;;
52294;SDS011;38243;53.212;6.574;2024-03-23T18:58:38;2.50;;;0.90;;
52294;SDS011;38243;53.212;6.574;2024-03-23T19:01:05;3.43;;;1.10;;
52294;SDS011;38243;53.212;6.574;2024-03-23T19:03:34;3.00;;;0.93;;
52294;SDS011;38243;53.212;6.574;2024-03-23T19:06:00;3.55;;;1.00;;
52294;SDS011;38243;53.212;6.574;2024-03-23T19:08:27;4.78;;;1.00;;
52294;SDS011;38243;53.212;6.574;2024-03-23T19:10:57;2.33;;;0.95;;
52294;SDS011;38243;53.212;6.574;2024-03-23T19:13:24;4.43;;;0.88;;
52294;SDS011;38243;53.212;6.574;2024-03-23T19:15:51;3.40;;;0.98;;
52294;SDS011;38243;53.212;6.574;2024-03-23T19:18:17;2.53;;;1.00;;
52294;SDS011;38243;53.212;6.574;2024-03-23T19:20:43;3.00;;;0.90;;
52294;SDS011;38243;53.212;6.574;2024-03-23T19:23:23;3.93;;;1.07;;
52294;SDS011;38243;53.212;6.574;2024-03-23T19:25:53;3.67;;;0.80;;
52294;SDS011;38243;53.212;6.574;2024-03-23T19:28:23;3.20;;;0.73;;
52294;SDS011;38243;53.212;6.574;2024-03-23T19:30:50;4.70;;;1.10;;
52294;SDS011;38243;53.212;6.574;2024-03-23T19:33:17;4.28;;;0.98;;
52294;SDS011;38243;53.212;6.574;2024-03-23T19:35:43;2.47;;;0.80;;
52294;SDS011;38243;53.212;6.574;2024-03-23T19:38:09;3.20;;;0.90;;
52294;SDS011;38243;53.212;6.574;2024-03-23T19:40:35;2.90;;;1.00;;
52294;SDS011;38243;53.212;6.574;2024-03-23T19:43:01;3.70;;;0.90;;
52294;SDS011;38243;53.212;6.574;2024-03-23T19:45:27;5.18;;;1.00;;
52294;SDS011;38243;53.212;6.574;2024-03-23T19:47:55;1.67;;;0.70;;
52294;SDS011;38243;53.212;6.574;2024-03-23T19:50:21;2.05;;;0.90;;
52294;SDS011;38243;53.212;6.574;2024-03-23T19:52:50;4.03;;;0.88;;
52294;SDS011;38243;53.212;6.574;2024-03-23T19:55:16;1.80;;;0.70;;
52294;SDS011;38243;53.212;6.574;2024-03-23T19:57:44;2.65;;;0.80;;
52294;SDS011;38243;53.212;6.574;2024-03-23T20:00:10;2.33;;;0.60;;
52294;SDS011;38243;53.212;6.574;2024-03-23T20:02:38;1.83;;;0.75;;
52294;SDS011;38243;53.212;6.574;2024-03-23T20:05:03;2.17;;;0.70;;
52294;SDS011;38243;53.212;6.574;2024-03-23T20:07:29;1.55;;;0.60;;
52294;SDS011;38243;53.212;6.574;2024-03-23T20:09:55;2.43;;;0.73;;
52294;SDS011;38243;53.212;6.574;2024-03-23T20:12:21;1.45;;;0.70;;
52294;SDS011;38243;53.212;6.574;2024-03-23T20:14:46;2.20;;;0.67;;
52294;SDS011;38243;53.212;6.574;2024-03-23T20:17:12;1.52;;;0.52;;
52294;SDS011;38243;53.212;6.574;2024-03-23T20:19:38;2.97;;;0.80;;
52294;SDS011;38243;53.212;6.574;2024-03-23T20:22:03;2.17;;;0.70;;
52294;SDS011;38243;53.212;6.574;2024-03-23T20:24:30;2.30;;;0.70;;
52294;SDS011;38243;53.212;6.574;2024-03-23T20:26:56;2.00;;;0.77;;
52294;SDS011;38243;53.212;6.574;2024-03-23T20:29:22;1.55;;;0.60;;
52294;SDS011;38243;53.212;6.574;2024-03-23T20:31:48;1.60;;;0.60;;
52294;SDS011;38243;53.212;6.574;2024-03-23T20:34:13;1.80;;;0.77;;
52294;SDS011;38243;53.212;6.574;2024-03-23T20:36:39;1.47;;;0.67;;
52294;SDS011;38243;53.212;6.574;2024-03-23T20:39:05;2.40;;;0.73;;
52294;SDS011;38243;53.212;6.574;2024-03-23T20:41:31;1.80;;;0.60;;
52294;SDS011;38243;53.212;6.574;2024-03-23T20:43:57;1.45;;;0.60;;
52294;SDS011;38243;53.212;6.574;2024-03-23T20:46:23;2.00;;;0.50;;
52294;SDS011;38243;53.212;6.574;2024-03-23T20:48:48;1.73;;;0.40;;
52294;SDS011;38243;53.212;6.574;2024-03-23T20:51:15;2.50;;;0.60;;
52294;SDS011;38243;53.212;6.574;2024-03-23T20:53:42;2.08;;;0.60;;
52294;SDS011;38243;53.212;6.574;2024-03-23T20:56:08;1.25;;;0.60;;
52294;SDS011;38243;53.212;6.574;2024-03-23T20:58:34;2.30;;;0.53;;
52294;SDS011;38243;53.212;6.574;2024-03-23T21:01:04;0.93;;;0.50;;
52294;SDS011;38243;53.212;6.574;2024-03-23T21:03:30;1.65;;;0.60;;
52294;SDS011;38243;53.212;6.574;2024-03-23T21:05:57;0.97;;;0.60;;
52294;SDS011;38243;53.212;6.574;2024-03-23T21:08:23;1.20;;;0.40;;
52294;SDS011;38243;53.212;6.574;2024-03-23T21:10:53;0.77;;;0.45;;
52294;SDS011;38243;53.212;6.574;2024-03-23T21:13:23;1.60;;;0.40;;
52294;SDS011;38243;53.212;6.574;2024-03-23T21:15:49;1.20;;;0.50;;
52294;SDS011;38243;53.212;6.574;2024-03-23T21:18:16;2.40;;;0.50;;
52294;SDS011;38243;53.212;6.574;2024-03-23T21:20:43;2.30;;;0.70;;
52294;SDS011;38243;53.212;6.574;2024-03-23T21:23:09;1.47;;;0.50;;
52294;SDS011;38243;53.212;6.574;2024-03-23T21:25:35;1.35;;;0.52;;
52294;SDS011;38243;53.212;6.574;2024-03-23T21:28:01;1.33;;;0.50;;
52294;SDS011;38243;53.212;6.574;2024-03-23T21:30:27;1.30;;;0.68;;
52294;SDS011;38243;53.212;6.574;2024-03-23T21:32:53;1.70;;;0.50;;
52294;SDS011;38243;53.212;6.574;2024-03-23T21:35:18;1.93;;;0.70;;
52294;SDS011;38243;53.212;6.574;2024-03-23T21:37:50;1.60;;;0.60;;
52294;SDS011;38243;53.212;6.574;2024-03-23T21:40:16;1.13;;;0.52;;
52294;SDS011;38243;53.212;6.574;2024-03-23T21:42:42;1.55;;;0.50;;
52294;SDS011;38243;53.212;6.574;2024-03-23T21:45:08;1.53;;;0.60;;
52294;SDS011;38243;53.212;6.574;2024-03-23T21:47:34;1.40;;;0.50;;
52294;SDS011;38243;53.212;6.574;2024-03-23T21:49:59;1.97;;;0.60;;
52294;SDS011;38243;53.212;6.574;2024-03-23T21:52:25;1.58;;;0.70;;
52294;SDS011;38243;53.212;6.574;2024-03-23T21:54:51;1.40;;;0.43;;
52294;SDS011;38243;53.212;6.574;2024-03-23T21:57:17;1.25;;;0.50;;
52294;SDS011;38243;53.212;6.574;2024-03-23T21:59:43;1.52;;;0.40;;
52294;SDS011;38243;53.212;6.574;2024-03-23T22:02:09;1.63;;;0.50;;
52294;SDS011;38243;53.212;6.574;2024-03-23T22:04:35;1.30;;;0.47;;
52294;SDS011;38243;53.212;6.574;2024-03-23T22:07:00;1.98;;;0.60;;
52294;SDS011;38243;53.212;6.574;2024-03-23T22:09:26;1.43;;;0.47;;
52294;SDS011;38243;53.212;6.574;2024-03-23T22:11:55;1.67;;;0.53;;
52294;SDS011;38243;53.212;6.574;2024-03-23T22:14:22;1.65;;;0.50;;
52294;SDS011;38243;53.212;6.574;2024-03-23T22:16:50;2.90;;;0.50;;
52294;SDS011;38243;53.212;6.574;2024-03-23T22:19:16;0.97;;;0.43;;
52294;SDS011;38243;53.212;6.574;2024-03-23T22:21:42;1.35;;;0.50;;
52294;SDS011;38243;53.212;6.574;2024-03-23T22:24:08;3.07;;;0.70;;
52294;SDS011;38243;53.212;6.574;2024-03-23T22:26:33;0.90;;;0.30;;
52294;SDS011;38243;53.212;6.574;2024-03-23T22:28:59;2.35;;;0.50;;
52294;SDS011;38243;53.212;6.574;2024-03-23T22:31:25;1.23;;;0.40;;
52294;SDS011;38243;53.212;6.574;2024-03-23T22:33:51;3.17;;;0.70;;
52294;SDS011;38243;53.212;6.574;2024-03-23T22:36:16;2.73;;;0.60;;
52294;SDS011;38243;53.212;6.574;2024-03-23T22:38:42;1.60;;;0.50;;
52294;SDS011;38243;53.212;6.574;2024-03-23T22:41:08;0.97;;;0.40;;
52294;SDS011;38243;53.212;6.574;2024-03-23T22:43:33;3.35;;;0.70;;
52294;SDS011;38243;53.212;6.574;2024-03-23T22:46:08;2.27;;;0.50;;
52294;SDS011;38243;53.212;6.574;2024-03-23T22:48:34;2.60;;;0.70;;
52294;SDS011;38243;53.212;6.574;2024-03-23T22:51:03;1.98;;;0.50;;
52294;SDS011;38243;53.212;6.574;2024-03-23T22:53:30;2.58;;;0.70;;
52294;SDS011;38243;53.212;6.574;2024-03-23T22:55:56;3.13;;;0.50;;
52294;SDS011;38243;53.212;6.574;2024-03-23T22:58:23;3.30;;;0.50;;
52294;SDS011;38243;53.212;6.574;2024-03-23T23:00:50;3.20;;;0.60;;
52294;SDS011;38243;53.212;6.574;2024-03-23T23:03:20;1.92;;;0.65;;
52294;SDS011;38243;53.212;6.574;2024-03-23T23:05:56;2.25;;;0.60;;
52294;SDS011;38243;53.212;6.574;2024-03-23T23:08:26;2.38;;;0.63;;
52294;SDS011;38243;53.212;6.574;2024-03-23T23:10:52;2.90;;;0.55;;
52294;SDS011;38243;53.212;6.574;2024-03-23T23:13:18;2.50;;;0.70;;
52294;SDS011;38243;53.212;6.574;2024-03-23T23:15:43;3.83;;;0.50;;
52294;SDS011;38243;53.212;6.574;2024-03-23T23:18:10;1.85;;;0.45;;
52294;SDS011;38243;53.212;6.574;2024-03-23T23:20:39;3.05;;;0.70;;
52294;SDS011;38243;53.212;6.574;2024-03-23T23:23:05;1.10;;;0.50;;
52294;SDS011;38243;53.212;6.574;2024-03-23T23:25:31;2.03;;;0.60;;
52294;SDS011;38243;53.212;6.574;2024-03-23T23:27:57;2.10;;;0.80;;
52294;SDS011;38243;53.212;6.574;2024-03-23T23:30:23;3.50;;;0.70;;
52294;SDS011;38243;53.212;6.574;2024-03-23T23:32:49;2.43;;;0.70;;
52294;SDS011;38243;53.212;6.574;2024-03-23T23:35:15;2.00;;;0.60;;
52294;SDS011;38243;53.212;6.574;2024-03-23T23:37:41;2.93;;;0.60;;
52294;SDS011;38243;53.212;6.574;2024-03-23T23:40:07;1.90;;;0.50;;
52294;SDS011;38243;53.212;6.574;2024-03-23T23:42:33;1.50;;;0.60;;
52294;SDS011;38243;53.212;6.574;2024-03-23T23:44:59;2.13;;;0.60;;
52294;SDS011;38243;53.212;6.574;2024-03-23T23:47:24;3.15;;;0.50;;
52294;SDS011;38243;53.212;6.574;2024-03-23T23:49:50;2.42;;;0.90;;
52294;SDS011;38243;53.212;6.574;2024-03-23T23:52:16;1.60;;;0.70;;
52294;SDS011;38243;53.212;6.574;2024-03-23T23:54:41;1.73;;;0.50;;
52294;SDS011;38243;53.212;6.574;2024-03-23T23:57:07;2.10;;;0.50;;
52294;SDS011;38243;53.212;6.574;2024-03-23T23:59:33;1.60;;;0.52;;
